Timeline UpdatesTrip UpdatesNews PostsPvt PostsTravel TipsAdmin PostsConv PostsFollowed PostsChat RequestsBlog PostsPNR Posts

Disclaimer
Search
 
 
Mon Apr 21, 2014 15:12:35 ISTHomeTrainsΣChainsAtlasPNRForumGalleryNewsFAQTripsMembersLoginFeedback
No Recent News for this Train
Other Trains in the News **new
Latest...
.
Tue Nov 19, 2013 (11:57PM)
⇐ Return Journey: Train# 56323

56324/Mangalore - Coimbatore Fast Passenger (UnReserved)

Nov 01 2013 (5:47AM)
Change Departure Station:
Change Arrival Station:
Post a Train Travel TipPost a Train Travel Tip **new
Post a Comment/Question/Picture/VideoPost a Comment/Question/Picture/Video
Pantry/Catering
???
RSA - Rake Sharing
RSA; with 56319/56320 Nagercoil Coimbatore Fast Passenger; Srivatsa Udupa
Rake/Coach Composition
LOCO=SLR=UR=UR=UR=UR=UR=UR=UR=UR=UR=UR=UR=UR=UR=UR=SLR
Loco
ED WDM 2
News    PNR    Forum    Time-Table    Availability    Fare Chart    Map    Arr/Dep History    Trips    Gallery    ΣChains    X/O    Timeline    
Travel Time: 9h 34m    40 halts    Distance: 315 km    Avg Speed: 32 km/hr
Type: Passenger
Zone: SR/Southern
Departs @ 10:01 (Avg 28m late)
Platform# ???
SMTWTFS
Trikkarippur/TKQ 
Arrives @ 19:35 (Avg 32m late)
Platform# ???
SMTWTFS
Coimbatore Main Junction/CBE 

40 halts. 57 intermediate Stations between Trikkarippur and Coimbatore Main Junction

Show ALL intermediate Stations  Show Old Time-Table

#CodeStation NameX/OArrivesAvgDepartsAvgHaltPFDay#KmSpeedElevZoneAddress
1MAQMangalore Central (3)  -08:00+531-91.92114mSRMangalore 575001, Karnataka
2ULLUllal (2)  08:19+608:20+71m--1-85.47726mSRSomeshwar, Karnataka
3MJSManjeshwar (3)  08:28+1008:29+121m--1-75.15912mSRManjeshwar, Kerala
4UAAUppala (2)X  08:36+1308:37+131m--1-68.25916mSRKasaragod District, Kerala
5KMQKumbala (2)O  08:47+1408:48+151m--1-58.47323mSRKumbla, Kerala
6KGQKasaragod (3)O  08:58+1709:00+172m--1-46.22918mSRTel: 04994 220800, Kerala
7KLADKalanad HaltXO  09:06+1809:07+181m--1-43.3663mSRKasaragod, Kerala
8KQKKottikkulam (2)X  09:13+1809:14+201m--1-36.74225mSRBekal, Kerala
9BFRBekal Fort (2)X  09:21+2209:22+221m--1-31.97511mSRPallikere, Kerala
10KZEKanhangad (3)  09:29+2209:31+242m--1-23.15115mSRKanhangad, Kerala
11NLENileshwar (2)  09:42+2509:43+251m--1-13.84012mSRNileswaram, Kerala
12CHVCharvattur (3)  09:51+2509:52+271m--1-8.66414mSRKasaragod district, Kerala
13TKQ»Trikkarippur»  10:00+2810:01+281m--10.05313mSRKasargod district, Kerala
14PAYPayyanur (3)X  10:08+2710:09+291m--16.2210mSRKannur District, Kerala
15ELMEzhimala  10:17+2810:18+281m--19.07615mSRKannur District, Kerala
16PAZPayangadi (2)X  10:25+2810:26+281m--117.95012mSRKannur District, Kerala
17KPQKannapuram (2)  10:35+2810:36+291m--125.41209mSRKannur District, Kerala
18PPNSPappinisseri (2)  10:39+3110:40+311m--131.4198mSRKannur District, Kerala
19VAPMValapattanam (2)  10:45+3110:46+311m--132.9258mSRKannur District, Kerala
20CQLChirakkal (2)X  10:51+1210:52+121m--135.01027mSRKannur district, Kerala
21CANKannur Main (3)  11:20+1111:25+175m3139.86214mSRKannur Tel: 0497 2705555, Kerala
22TLYThalassery (2)X  11:45+1811:46+211m--160.5509mSRKannur, Kerala
23MAHEMahe (2)  11:57+2211:58+231m--169.84516mSRMahe, Puducherry
24MUKEMukkali12:03+2312:04+231m--173.54418mSRChombala, Kerala
25NAUNadapuram Road12:09+2312:10+231m--177.26518mSRMadappallly, Kerala
26BDJVadakara (2)  12:15+2312:16+251m1182.69711mSRCalicut / Station Ph No : 0496-2524254, Kerala
27PYOLPayyoli (2)  12:22+2612:23+261m--192.34912mSRPayyoli, Kerala
28QLDKoyilandy (3)  12:38+2612:39+281m--1104.64111mSRQuilandi, Kerala
29CLTKozhikode Main (4)X  13:15+1813:20+245m31128.92211mSRCalicut Tel: 0495 2701234, Kerala
30KULKallayi Kozhikode South (2)  13:25+2613:26+271m--1130.7610mSRCalicut, Kerala
31FKFerok (2)  13:34+2913:35+371m--1138.95719mSRFeroke, Kerala
32KNKadalundi (2)  13:40+4113:41+421m--1143.6828mSRKozhikode district, Kerala
33VLIVallikunnu (2)  13:45+4413:46+441m--1149.13713mSRVallikkunnu, Kerala
34PGIParappangadi (2)  13:54+4313:55+451m--1154.05419mSRParappanangadi, Kerala
35TATanur (3)O  14:04+4814:05+481m--1162.13711mSRMalappuram, Kerala
36TIRTirur (3)X  14:18+4114:20+422m31170.1579mSRTel: 0494 2422240, Kerala
37TUATirunnavaya (2)  14:29+4414:30+441m--1178.74310mSRThirunavaya, Kerala
38KTUKuttippuram (2)X  14:39+4414:40+451m--1185.26217mSRKuttippuram, Kerala
39PUMPallippuram  14:49+4914:50+491m--1194.5615mSRPalakkad, Kerala
40PTBPattambi (2)XO  14:59+5115:00+521m--1203.71221mSRPattambi, Kerala
41SRRShoranur Junction (7)X  16:00+1516:15+1615m51215.22926mSRShoranur ph.no 0466-2222913, Kerala
42MNURMannanur (2)  16:27+1516:28+171m--1221.04733mSRVaniamkulam Mannanur Rd, Kerala
43OTPOttappalam (2)  16:37+1616:38+161m--1228.14530mSROttapalam, Kerala
44PLPMPalappuram  16:44+1616:45+161m--1232.63136mSRKayarampara-Meetna Rd, Kerala
45LDYLakkidi (2)X  16:51+1616:52+171m--1235.65935mSRPalakkad, Kerala
46MNYMankara (2)  17:00+1717:01+171m--1243.55665mSRPalakkad, Kerala
47PLLParli (2)  17:09+1717:10+191m--1250.92163mSRPalakkad, Kerala
48PGTPalakkad Junction (4)XO  17:35+918:00+925m31259.54884mSRPalghat Tel: 0491 2555231, Kerala
49KJKDKanjikode (2)X  18:17+1918:18+201m--1273.2460mSRPalakkad, Kerala
50WRAWalayarX  18:34+2218:35+221m--1285.533213mSRPalakkad, Kerala
51ETMDEttimadai (2)  18:51+2118:52+211m--1294.444313mSREttimadai, Tamil Nadu
52MDKIMadukaraiX  18:59+2219:00+221m--1299.533361mSRCoimbatore, Tamil Nadu
53PTJPodanur Junction (4)  19:18+2619:20+262m11309.423400mSRPodanur jtn ph.no. 0422-2410784, Tamil Nadu
54CBE•Coimbatore Main Junction (6)•  19:35+32---1315.3-411mSRCoimbatore 641001, Tamil Nadu
Scroll to Top
Scroll to Bottom